createdAt,value
2023-03-05T00:00:14.402Z,13.14
2023-03-05T00:05:11.657Z,11.219999999999999
2023-03-05T00:10:07.898Z,10.080000000000002
2023-03-05T00:15:06.197Z,9.84
2023-03-05T00:20:02.653Z,10.819999999999999
2023-03-05T00:24:58.714Z,9.98
2023-03-05T00:29:54.997Z,9.32
2023-03-05T00:34:51.245Z,8.9
2023-03-05T00:39:47.546Z,7.859999999999999
2023-03-05T00:44:43.736Z,8.34
2023-03-05T00:49:39.969Z,7.459999999999999
2023-03-05T00:54:37.278Z,7.859999999999999
2023-03-05T00:59:33.563Z,6.32
2023-03-05T01:04:29.726Z,7.359999999999999
2023-03-05T01:09:26.019Z,7.760000000000001
2023-03-05T01:14:22.295Z,8.4
2023-03-05T01:19:18.680Z,6.779999999999999
2023-03-05T01:24:14.795Z,7.38
2023-03-05T01:34:15.285Z,5.4
2023-03-05T01:39:11.550Z,5.5200000000000005
2023-03-05T01:44:12.837Z,5
2023-03-05T01:49:12.051Z,4.88
2023-03-05T01:54:09.304Z,5.12
2023-03-05T01:59:05.731Z,4.540000000000001
2023-03-05T02:04:01.864Z,4.5200000000000005
2023-03-05T02:08:59.099Z,5.840000000000001
2023-03-05T02:13:56.303Z,6.42
2023-03-05T02:18:53.575Z,5.4399999999999995
2023-03-05T02:23:50.852Z,10.84
2023-03-05T02:28:50.096Z,7.980000000000001
2023-03-05T02:33:47.325Z,9.08
2023-03-05T02:38:43.656Z,8.42
2023-03-05T02:43:38.889Z,6.459999999999999
2023-03-05T02:48:35.116Z,4.38
2023-03-05T02:53:31.402Z,4.4799999999999995
2023-03-05T02:58:27.650Z,6.18
2023-03-05T03:03:24.007Z,4.319999999999999
2023-03-05T03:08:20.186Z,4.279999999999999
2023-03-05T03:13:16.433Z,4.5200000000000005
2023-03-05T03:18:12.693Z,3.96
2023-03-05T03:23:08.952Z,4.859999999999999
2023-03-05T03:28:05.246Z,4.68
2023-03-05T03:33:01.477Z,5.359999999999999
2023-03-05T03:37:57.764Z,4.7
2023-03-05T03:42:54.008Z,6.839999999999999
2023-03-05T03:47:50.234Z,5.3
2023-03-05T03:52:46.536Z,4.58
2023-03-05T03:57:42.784Z,4.32
2023-03-05T04:02:39.137Z,4.720000000000001
2023-03-05T04:07:35.273Z,5.7
2023-03-05T04:12:31.715Z,4.8
2023-03-05T04:17:27.818Z,6
2023-03-05T04:22:24.098Z,5.7
2023-03-05T04:27:20.338Z,4.659999999999999
2023-03-05T04:32:16.629Z,4.54
2023-03-05T04:37:12.864Z,4.4799999999999995
2023-03-05T04:42:09.120Z,4.459999999999999
2023-03-05T04:47:05.377Z,4.84
2023-03-05T04:52:01.584Z,6.38
2023-03-05T04:56:57.897Z,6.24
2023-03-05T05:01:54.203Z,5.14
2023-03-05T05:06:50.429Z,5.760000000000001
2023-03-05T05:11:46.662Z,5.4399999999999995
2023-03-05T05:16:42.898Z,5.3
2023-03-05T05:21:39.159Z,5.3
2023-03-05T05:26:36.412Z,5.8
2023-03-05T05:31:32.784Z,6.32
2023-03-05T05:36:27.977Z,6.24
2023-03-05T05:41:24.258Z,7.94
2023-03-05T05:46:21.691Z,8.52
2023-03-05T05:51:17.732Z,5.359999999999999
2023-03-05T05:56:15.004Z,5.5200000000000005
2023-03-05T06:01:12.256Z,5.640000000000001
2023-03-05T06:06:09.489Z,5.3
2023-03-05T06:11:05.788Z,7.4799999999999995
2023-03-05T06:16:03.038Z,7.0200000000000005
2023-03-05T06:21:00.308Z,8.32
2023-03-05T06:25:58.557Z,8.540000000000001
2023-03-05T06:30:59.797Z,6.94
2023-03-05T06:35:56.066Z,11.879999999999999
2023-03-05T06:46:02.611Z,10.3
2023-03-05T06:50:57.832Z,6.9399999999999995
2023-03-05T06:55:54.077Z,7.18
2023-03-05T07:00:50.303Z,6.82
2023-03-05T07:05:46.586Z,8.120000000000001
2023-03-05T07:10:43.829Z,8.4
2023-03-05T07:15:41.204Z,16.64
2023-03-05T07:20:37.351Z,8.580000000000002
2023-03-05T07:25:35.571Z,6.739999999999999
2023-03-05T07:30:31.859Z,8.4
2023-03-05T07:35:28.208Z,6.720000000000001
2023-03-05T07:40:24.401Z,6.1
2023-03-05T07:45:19.633Z,9.2
2023-03-05T07:50:15.885Z,9.52
2023-03-05T07:55:12.153Z,7.140000000000001
2023-03-05T08:00:09.420Z,7.3
2023-03-05T08:05:05.662Z,8.260000000000002
2023-03-05T08:10:01.894Z,7.92
2023-03-05T08:14:58.212Z,5.0200000000000005
2023-03-05T08:19:54.445Z,7.459999999999999
2023-03-05T08:24:50.713Z,6.540000000000001
2023-03-05T08:29:46.973Z,7.2
2023-03-05T08:34:43.236Z,8.540000000000001
2023-03-05T08:39:39.506Z,8.16
2023-03-05T08:44:35.783Z,7.580000000000001
2023-03-05T08:49:32.110Z,8.3
2023-03-05T08:54:29.334Z,7.5200000000000005
2023-03-05T08:59:25.528Z,8.06
2023-03-05T09:04:21.879Z,7.139999999999999
2023-03-05T09:09:18.150Z,7.4799999999999995
2023-03-05T09:14:14.422Z,5.94
2023-03-05T09:19:10.656Z,3.9400000000000004
2023-03-05T09:24:06.795Z,4.3
2023-03-05T09:29:03.092Z,5.0600000000000005
2023-03-05T09:33:59.347Z,5.32
2023-03-05T09:38:55.651Z,5.279999999999999
2023-03-05T09:44:01.807Z,5.18
2023-03-05T09:49:08.058Z,4.6
2023-03-05T09:54:12.332Z,4.9
2023-03-05T09:59:17.565Z,6.9
2023-03-05T10:04:23.804Z,5.5200000000000005
2023-03-05T10:09:31.048Z,4.64
2023-03-05T10:14:29.280Z,4.279999999999999
2023-03-05T10:19:41.493Z,8.9
2023-03-05T10:24:49.700Z,4.279999999999999
2023-03-05T10:30:00.929Z,5.52
2023-03-05T10:35:16.176Z,5.1
2023-03-05T10:40:26.368Z,7.5200000000000005
2023-03-05T10:45:28.632Z,6.02
2023-03-05T10:50:27.871Z,6.68
2023-03-05T10:55:24.105Z,4.94
2023-03-05T11:00:22.380Z,8.940000000000001
2023-03-05T11:05:23.642Z,6.279999999999999
2023-03-05T11:10:28.862Z,6.959999999999999
2023-03-05T11:15:30.126Z,6.44
2023-03-05T11:20:31.355Z,5.180000000000001
2023-03-05T11:25:52.558Z,8.679999999999998
2023-03-05T11:30:56.819Z,6.32
2023-03-05T11:36:09.013Z,5.4
2023-03-05T11:41:05.238Z,6.279999999999999
2023-03-05T11:46:02.610Z,4.4
2023-03-05T11:50:59.740Z,4.4799999999999995
2023-03-05T11:56:01.086Z,6.959999999999999
2023-03-05T12:01:00.271Z,5.460000000000001
2023-03-05T12:05:58.560Z,6.159999999999999
2023-03-05T12:10:54.799Z,5.58
2023-03-05T12:16:04.048Z,8.879999999999999
2023-03-05T12:21:06.302Z,6
2023-03-05T12:26:04.522Z,4.8
2023-03-05T12:31:11.829Z,7.4
2023-03-05T12:36:18.989Z,5.159999999999999
2023-03-05T12:41:27.872Z,2.96
2023-03-05T12:46:34.518Z,4.64
2023-03-05T12:56:47.926Z,4.8
2023-03-05T13:01:57.149Z,5.12
2023-03-05T13:07:00.408Z,3.94
2023-03-05T13:11:56.692Z,3.5
2023-03-05T13:16:58.879Z,3.2800000000000002
2023-03-05T13:22:01.126Z,3.5
2023-03-05T13:27:01.401Z,6.24
2023-03-05T13:31:59.833Z,7.220000000000001
2023-03-05T13:36:58.862Z,3.5200000000000005
2023-03-05T13:41:58.169Z,7.76
2023-03-05T13:47:07.360Z,4.2
2023-03-05T13:52:12.650Z,4.0200000000000005
2023-03-05T13:57:22.809Z,4.44
2023-03-05T14:02:24.086Z,8.379999999999999
2023-03-05T14:07:30.311Z,12.34
2023-03-05T14:12:34.566Z,8.24
2023-03-05T14:17:44.744Z,7.7
2023-03-05T14:22:51.023Z,7.500000000000002
2023-03-05T14:27:52.241Z,7.1
2023-03-05T14:32:54.511Z,11.7
2023-03-05T14:37:56.724Z,12.24
2023-03-05T14:43:00.975Z,12.6
2023-03-05T14:48:02.210Z,5.44
2023-03-05T14:53:06.441Z,8.940000000000001
2023-03-05T14:58:10.709Z,8.079999999999998
2023-03-05T15:03:10.944Z,8.940000000000001
2023-03-05T15:08:13.346Z,13.4
2023-03-05T15:13:13.422Z,9.7
2023-03-05T15:18:15.702Z,6.68
2023-03-05T15:28:25.145Z,8.16
2023-03-05T15:33:25.464Z,6.380000000000001
2023-03-05T15:38:25.697Z,9.84
2023-03-05T15:43:25.941Z,8.98
2023-03-05T15:48:26.187Z,7.8
2023-03-05T15:53:26.419Z,18.24
2023-03-05T15:58:26.695Z,12.7
2023-03-05T16:03:26.969Z,9.7
2023-03-05T16:08:28.161Z,12.18
2023-03-05T16:13:32.409Z,11.16
2023-03-05T16:18:34.702Z,13.52
2023-03-05T16:23:34.914Z,21.919999999999998
2023-03-05T16:28:35.124Z,24.520000000000003
2023-03-05T16:33:35.435Z,25.72
2023-03-05T16:38:35.666Z,32.580000000000005
2023-03-05T16:43:35.932Z,38.38
2023-03-05T16:48:36.156Z,30.18
2023-03-05T16:53:36.397Z,31.96
2023-03-05T16:58:37.654Z,31.54
2023-03-05T17:03:37.904Z,34.14
2023-03-05T17:08:38.146Z,48.839999999999996
2023-03-05T17:13:38.400Z,86.25999999999999
2023-03-05T17:18:38.832Z,72.14
2023-03-05T17:23:34.890Z,108.22
2023-03-05T17:28:35.172Z,96.36
2023-03-05T17:33:35.488Z,81.58000000000001
2023-03-05T17:38:36.693Z,83.08
2023-03-05T17:43:37.000Z,87.26
2023-03-05T17:48:33.248Z,45.67999999999999
2023-03-05T17:53:33.513Z,36.02
2023-03-05T17:58:33.827Z,27.3
2023-03-05T18:03:33.912Z,29.28
2023-03-05T18:08:34.305Z,47.36
2023-03-05T18:13:34.401Z,40.559999999999995
2023-03-05T18:18:34.664Z,29.26
2023-03-05T18:23:35.923Z,29.919999999999998
2023-03-05T18:28:37.174Z,27.060000000000002
2023-03-05T18:33:33.395Z,26.439999999999998
2023-03-05T18:38:33.777Z,20.06
2023-03-05T18:43:33.953Z,21.74
2023-03-05T18:48:30.159Z,23.84
2023-03-05T18:53:30.423Z,19.119999999999997
2023-03-05T18:58:30.664Z,24.060000000000002
2023-03-05T19:03:31.095Z,20.92
2023-03-05T19:08:31.180Z,28.04
2023-03-05T19:13:34.584Z,29.640000000000004
2023-03-05T19:18:39.966Z,31.74
2023-03-05T19:23:40.046Z,29.02
2023-03-05T19:28:40.266Z,19.520000000000003
2023-03-05T19:33:40.367Z,22.5
2023-03-05T19:38:40.613Z,17.32
2023-03-05T19:43:40.882Z,18.2
2023-03-05T19:48:37.103Z,11.580000000000002
2023-03-05T19:53:37.372Z,14.139999999999997
2023-03-05T19:58:33.701Z,12.559999999999999
2023-03-05T20:03:34.357Z,12.559999999999999
2023-03-05T20:08:35.132Z,14.76
2023-03-05T20:13:35.418Z,14.080000000000002
2023-03-05T20:18:35.669Z,12.379999999999999
2023-03-05T20:23:35.917Z,14.580000000000002
2023-03-05T20:28:36.140Z,14.180000000000001
2023-03-05T20:33:36.387Z,15.059999999999999
2023-03-05T20:38:37.692Z,16.5
2023-03-05T20:43:40.880Z,16.42
2023-03-05T20:48:42.136Z,11.620000000000001
2023-03-05T20:53:38.445Z,13.059999999999999
2023-03-05T20:58:40.660Z,10.92
2023-03-05T21:03:36.917Z,12.66
2023-03-05T21:08:33.158Z,11.12
2023-03-05T21:13:29.432Z,14.580000000000002
2023-03-05T21:18:25.682Z,16.060000000000002
2023-03-05T21:23:21.925Z,10.78
2023-03-05T21:28:18.363Z,11.180000000000001
2023-03-05T21:33:15.473Z,9.579999999999998
2023-03-05T21:38:15.718Z,9.26
2023-03-05T21:43:16.940Z,10.9
2023-03-05T21:48:17.196Z,10.78
2023-03-05T21:53:14.465Z,11.7
2023-03-05T21:58:10.684Z,10.82
2023-03-05T22:03:10.978Z,11.76
2023-03-05T22:08:07.245Z,10.6
2023-03-05T22:13:04.454Z,8.400000000000002
2023-03-05T22:18:00.845Z,8.36
2023-03-05T22:22:57.062Z,8.38
2023-03-05T22:27:53.277Z,8.559999999999999
2023-03-05T22:32:49.526Z,7.18
2023-03-05T22:37:50.810Z,9
2023-03-05T22:42:51.288Z,8.14
2023-03-05T22:47:48.279Z,7.26
2023-03-05T22:52:44.523Z,7.4
2023-03-05T22:57:40.793Z,15.7
2023-03-05T23:02:42.032Z,15.26
2023-03-05T23:07:43.286Z,9.919999999999998
2023-03-05T23:12:45.499Z,10.760000000000002
2023-03-05T23:17:45.757Z,12.02
2023-03-05T23:22:46.012Z,11.66
2023-03-05T23:27:45.294Z,11.34
2023-03-05T23:32:41.591Z,8.58
2023-03-05T23:37:37.790Z,12.2
2023-03-05T23:42:34.042Z,10.88
2023-03-05T23:47:30.303Z,9.94
2023-03-05T23:52:26.549Z,10.600000000000001
2023-03-05T23:57:22.844Z,10.379999999999999
